Time;durP1;ratioP1;P1;durP2;ratioP2;P2;SDS_P1;SDS_P2;PMS_P1;PMS_P2;Temp;Humidity;BMP_temperature;BMP_pressure;BME280_temperature;BME280_humidity;BME280_pressure;Samples;Min_cycle;Max_cycle;Signal;HPM_P1;HPM_P2
2022/07/02 00:00:58;;;;;;;2.80;2.43;;;15.60;99.90;;;;;;5097672;28;20455;-44
2022/07/02 00:03:30;;;;;;;2.30;2.10;;;15.50;99.90;;;;;;5097928;28;20192;-49
2022/07/02 00:05:57;;;;;;;3.90;2.00;;;15.50;99.90;;;;;;5097796;28;20487;-48
2022/07/02 00:08:24;;;;;;;2.50;2.10;;;15.50;99.90;;;;;;5095543;28;20458;-46
2022/07/02 00:10:53;;;;;;;3.33;2.50;;;15.50;99.90;;;;;;5094120;28;20524;-46
2022/07/02 00:13:20;;;;;;;2.00;1.80;;;15.40;99.90;;;;;;5096395;28;20432;-45
2022/07/02 00:15:46;;;;;;;2.20;1.90;;;15.40;99.90;;;;;;5095750;28;20419;-46
2022/07/02 00:18:12;;;;;;;3.30;2.40;;;15.40;99.90;;;;;;5096342;28;20419;-45
2022/07/02 00:20:38;;;;;;;2.17;1.97;;;15.40;99.90;;;;;;5095052;28;20458;-46
2022/07/02 00:23:04;;;;;;;2.87;1.90;;;15.40;99.80;;;;;;5095716;28;20428;-43
2022/07/02 00:25:43;;;;;;;2.40;2.03;;;15.40;99.80;;;;;;5095171;28;20445;-43
2022/07/02 00:28:15;;;;;;;2.10;1.90;;;15.40;99.70;;;;;;5097224;28;20180;-44
2022/07/02 00:30:45;;;;;;;2.10;1.90;;;15.30;99.80;;;;;;5096480;28;20463;-44
2022/07/02 00:33:13;;;;;;;3.03;2.20;;;15.30;99.90;;;;;;5096153;28;20435;-44
2022/07/02 00:35:41;;;;;;;2.30;2.10;;;15.30;99.90;;;;;;5096641;28;20459;-43
2022/07/02 00:38:07;;;;;;;2.07;1.83;;;15.20;99.90;;;;;;5096266;28;20814;-47
2022/07/02 00:40:33;;;;;;;2.20;2.00;;;15.20;99.90;;;;;;5094843;28;20450;-46
2022/07/02 00:42:59;;;;;;;2.20;2.00;;;15.20;99.90;;;;;;5094911;28;20422;-45
2022/07/02 00:45:26;;;;;;;2.20;1.90;;;15.20;99.90;;;;;;5095737;28;20431;-44
2022/07/02 00:47:54;;;;;;;2.67;2.20;;;15.20;99.90;;;;;;5076940;28;20260;-44
2022/07/02 00:50:23;;;;;;;2.90;2.07;;;15.20;99.90;;;;;;5096361;28;20767;-45
2022/07/02 00:52:50;;;;;;;3.23;1.80;;;15.20;99.90;;;;;;5096643;28;20426;-44
2022/07/02 00:55:16;;;;;;;2.27;1.70;;;15.20;99.90;;;;;;5096780;28;20462;-45
2022/07/02 00:57:45;;;;;;;2.20;2.00;;;15.20;99.90;;;;;;5096414;28;20442;-46
2022/07/02 01:00:14;;;;;;;2.73;2.07;;;15.20;99.90;;;;;;5097161;28;20788;-43
2022/07/02 01:02:42;;;;;;;2.03;1.83;;;15.20;99.90;;;;;;5096664;28;20418;-43
2022/07/02 01:05:09;;;;;;;3.90;1.63;;;15.20;99.90;;;;;;5096407;28;20471;-43
2022/07/02 01:07:36;;;;;;;4.00;1.67;;;15.20;99.90;;;;;;5095163;28;20844;-44
2022/07/02 01:10:17;;;;;;;2.20;1.80;;;15.20;99.90;;;;;;5096308;28;20470;-46
2022/07/02 01:12:46;;;;;;;2.07;1.87;;;15.20;99.90;;;;;;5095362;28;20465;-43
2022/07/02 01:15:12;;;;;;;2.70;1.77;;;15.20;99.90;;;;;;5095608;28;20454;-43
2022/07/02 01:17:38;;;;;;;2.07;1.83;;;15.20;99.90;;;;;;5096223;28;20716;-50
2022/07/02 01:20:04;;;;;;;2.73;1.80;;;15.20;99.90;;;;;;5096306;28;20442;-45
2022/07/02 01:22:41;;;;;;;1.90;1.80;;;15.20;99.80;;;;;;5099761;28;20195;-42
2022/07/02 01:25:08;;;;;;;2.53;1.70;;;15.10;99.50;;;;;;5099535;28;20626;-45
2022/07/02 01:27:33;;;;;;;2.63;1.50;;;15.00;99.90;;;;;;5100152;28;20423;-42
2022/07/02 01:29:59;;;;;;;2.80;1.67;;;15.00;99.90;;;;;;5100338;28;20485;-44
2022/07/02 01:32:25;;;;;;;2.47;1.80;;;15.00;99.90;;;;;;5100052;28;20357;-42
2022/07/02 01:34:53;;;;;;;2.97;1.77;;;15.00;99.90;;;;;;5100105;28;20462;-43
2022/07/02 01:37:20;;;;;;;1.97;1.60;;;15.00;99.90;;;;;;5099202;28;20234;-44
2022/07/02 01:39:46;;;;;;;5.23;1.80;;;15.00;99.90;;;;;;5096884;28;20836;-43
2022/07/02 01:42:13;;;;;;;2.70;1.80;;;15.00;99.90;;;;;;5099019;28;20424;-47
2022/07/02 01:44:39;;;;;;;1.83;1.70;;;15.10;99.90;;;;;;5097906;28;20782;-45
2022/07/02 01:47:07;;;;;;;5.00;1.80;;;15.10;99.90;;;;;;5098755;28;20423;-44
2022/07/02 01:49:34;;;;;;;2.00;1.70;;;15.00;99.90;;;;;;5098793;28;20726;-43
2022/07/02 01:52:00;;;;;;;3.07;1.47;;;15.00;99.90;;;;;;5100258;28;20407;-42
2022/07/02 01:54:26;;;;;;;2.43;2.00;;;15.00;99.90;;;;;;5099934;28;20442;-44
2022/07/02 01:56:51;;;;;;;1.83;1.40;;;15.00;99.90;;;;;;5098931;28;20204;-45
2022/07/02 01:59:18;;;;;;;1.80;1.60;;;15.00;99.90;;;;;;5099399;28;20259;-45
2022/07/02 02:01:44;;;;;;;2.03;1.83;;;14.90;99.90;;;;;;5100178;28;20189;-44
2022/07/02 02:04:10;;;;;;;3.37;1.90;;;14.90;99.90;;;;;;5099608;28;20412;-44
2022/07/02 02:06:37;;;;;;;2.40;1.70;;;14.90;99.90;;;;;;5100413;28;20443;-44
2022/07/02 02:09:03;;;;;;;2.90;1.97;;;14.80;99.90;;;;;;5099545;28;20739;-43
2022/07/02 02:11:29;;;;;;;2.80;1.80;;;14.80;99.90;;;;;;5099192;28;20435;-44
2022/07/02 02:13:58;;;;;;;2.93;2.00;;;14.80;99.90;;;;;;5098991;28;20419;-44
2022/07/02 02:16:28;;;;;;;3.23;2.07;;;14.80;99.90;;;;;;5099602;28;20585;-42
2022/07/02 02:18:54;;;;;;;2.00;1.70;;;14.80;99.80;;;;;;5099300;28;20840;-42
2022/07/02 02:21:21;;;;;;;2.83;1.70;;;14.70;99.90;;;;;;5098780;28;20438;-43
2022/07/02 02:23:47;;;;;;;2.20;1.57;;;14.70;99.90;;;;;;5099472;28;20411;-43
2022/07/02 02:26:12;;;;;;;3.10;1.70;;;14.70;99.90;;;;;;5098893;28;20734;-43
2022/07/02 02:28:38;;;;;;;3.23;2.07;;;14.70;99.90;;;;;;5098354;28;20184;-45
2022/07/02 02:31:04;;;;;;;1.73;1.53;;;14.70;99.90;;;;;;5098895;28;20257;-46
2022/07/02 02:33:29;;;;;;;2.70;2.13;;;14.70;99.90;;;;;;5098894;28;20196;-44
2022/07/02 02:35:55;;;;;;;3.90;2.20;;;14.70;99.90;;;;;;5098541;28;20188;-43
2022/07/02 02:38:21;;;;;;;2.20;1.97;;;14.60;99.90;;;;;;5097633;28;20173;-42
2022/07/02 02:40:46;;;;;;;2.20;2.00;;;14.60;99.90;;;;;;5097454;28;20187;-43
2022/07/02 02:43:12;;;;;;;1.83;1.73;;;14.60;99.90;;;;;;5097512;28;20200;-43
2022/07/02 02:45:38;;;;;;;1.83;1.70;;;14.60;99.90;;;;;;5096972;28;20265;-46
2022/07/02 02:48:04;;;;;;;5.17;2.10;;;14.60;99.90;;;;;;5095791;28;20443;-43
2022/07/02 02:50:29;;;;;;;2.03;1.83;;;14.60;99.90;;;;;;5097631;28;20696;-45
2022/07/02 02:52:55;;;;;;;1.60;1.50;;;14.60;99.90;;;;;;5097869;28;20414;-43
2022/07/02 02:55:20;;;;;;;1.67;1.50;;;14.60;99.90;;;;;;5099275;28;20215;-44
2022/07/02 02:57:46;;;;;;;2.40;2.20;;;14.60;99.90;;;;;;5099279;28;20200;-43
2022/07/02 03:00:12;;;;;;;1.93;1.83;;;14.50;99.90;;;;;;5099001;28;20185;-44
2022/07/02 03:02:38;;;;;;;2.27;2.07;;;14.50;99.90;;;;;;5099171;28;20245;-45
2022/07/02 03:05:04;;;;;;;2.07;1.87;;;14.50;99.90;;;;;;5097831;28;20450;-43
2022/07/02 03:07:29;;;;;;;2.37;2.17;;;14.50;99.90;;;;;;5098346;28;20185;-45
2022/07/02 03:09:55;;;;;;;2.10;1.90;;;14.50;99.90;;;;;;5096174;28;20540;-45
2022/07/02 03:12:21;;;;;;;2.87;1.90;;;14.50;99.90;;;;;;5096859;28;20169;-45
2022/07/02 03:14:46;;;;;;;2.40;2.20;;;14.50;99.90;;;;;;5096204;28;20501;-46
2022/07/02 03:17:12;;;;;;;2.80;2.00;;;14.50;99.90;;;;;;5096541;28;20196;-43
2022/07/02 03:19:38;;;;;;;2.00;1.60;;;14.50;99.90;;;;;;5096624;28;20458;-43
2022/07/02 03:22:04;;;;;;;3.00;1.70;;;14.50;99.90;;;;;;5097395;28;20694;-45
2022/07/02 03:24:29;;;;;;;2.23;1.90;;;14.50;99.90;;;;;;5096613;28;20173;-44
2022/07/02 03:26:55;;;;;;;1.80;1.70;;;14.50;99.90;;;;;;5098463;28;20430;-47
2022/07/02 03:29:21;;;;;;;2.63;2.10;;;14.50;99.90;;;;;;5098042;28;20179;-44
2022/07/02 03:31:47;;;;;;;2.23;1.80;;;14.50;99.90;;;;;;5096486;28;20476;-44
2022/07/02 03:34:12;;;;;;;2.10;1.90;;;14.50;99.80;;;;;;5098064;28;20191;-47
2022/07/02 03:36:38;;;;;;;4.00;2.37;;;14.40;99.60;;;;;;5097962;28;20238;-44
2022/07/02 03:39:04;;;;;;;1.80;1.40;;;14.50;99.80;;;;;;5097656;28;20210;-44
2022/07/02 03:41:29;;;;;;;2.70;1.73;;;14.50;99.80;;;;;;5097619;28;20211;-43
2022/07/02 03:43:55;;;;;;;1.90;1.67;;;14.50;99.80;;;;;;5096561;28;20177;-43
2022/07/02 03:46:21;;;;;;;2.90;1.80;;;14.50;99.80;;;;;;5096590;28;20454;-44
2022/07/02 03:48:46;;;;;;;2.10;1.90;;;14.50;99.70;;;;;;5094866;28;20200;-43
2022/07/02 03:51:12;;;;;;;1.60;1.47;;;14.50;99.50;;;;;;5095287;28;20212;-48
2022/07/02 03:53:38;;;;;;;2.20;1.90;;;14.50;99.50;;;;;;5097225;28;20183;-43
2022/07/02 03:56:04;;;;;;;2.60;1.87;;;14.50;99.30;;;;;;5096289;28;20190;-43
2022/07/02 03:58:31;;;;;;;2.30;2.03;;;14.50;99.40;;;;;;5096573;28;20195;-45
2022/07/02 04:00:57;;;;;;;2.10;1.90;;;14.50;99.60;;;;;;5096487;28;20443;-43
2022/07/02 04:03:23;;;;;;;2.57;2.10;;;14.50;99.40;;;;;;5097864;28;20419;-43
2022/07/02 04:05:49;;;;;;;3.30;1.93;;;14.50;99.30;;;;;;5098074;28;20515;-43
2022/07/02 04:08:14;;;;;;;2.10;1.90;;;14.50;99.30;;;;;;5096617;28;20187;-44
2022/07/02 04:10:40;;;;;;;1.87;1.50;;;14.60;99.30;;;;;;5094525;28;20222;-44
2022/07/02 04:13:06;;;;;;;2.10;1.90;;;14.60;99.30;;;;;;5096425;28;20212;-43
2022/07/02 04:15:32;;;;;;;2.03;1.70;;;14.60;99.00;;;;;;5096108;28;20205;-45
2022/07/02 04:17:57;;;;;;;3.50;2.00;;;14.60;98.90;;;;;;5095240;28;20917;-45
2022/07/02 04:20:23;;;;;;;2.00;1.70;;;14.60;98.90;;;;;;5095756;28;20187;-42
2022/07/02 04:22:49;;;;;;;4.80;1.83;;;14.70;99.10;;;;;;5094875;28;20173;-43
2022/07/02 04:25:14;;;;;;;2.30;1.87;;;14.70;99.20;;;;;;5095741;28;20183;-43
2022/07/02 04:27:40;;;;;;;2.00;1.67;;;14.70;99.30;;;;;;5096171;28;20196;-42
2022/07/02 04:30:09;;;;;;;1.60;1.40;;;14.80;99.20;;;;;;5095997;28;20220;-47
2022/07/02 04:32:35;;;;;;;3.23;1.80;;;14.80;99.10;;;;;;5095310;28;20248;-43
2022/07/02 04:35:00;;;;;;;2.10;1.90;;;14.90;99.10;;;;;;5095297;28;20762;-45
2022/07/02 04:37:26;;;;;;;6.90;2.00;;;15.00;98.90;;;;;;5093882;28;20411;-45
2022/07/02 04:39:52;;;;;;;3.37;1.83;;;15.10;99.10;;;;;;5094322;28;20254;-47
2022/07/02 04:42:17;;;;;;;2.70;2.03;;;15.20;98.70;;;;;;5094478;28;20176;-43
2022/07/02 04:44:43;;;;;;;2.10;1.83;;;15.30;98.60;;;;;;5095660;28;20196;-45
2022/07/02 04:47:09;;;;;;;1.97;1.50;;;15.40;98.40;;;;;;5095812;28;20175;-44
2022/07/02 04:49:34;;;;;;;1.90;1.67;;;15.50;98.40;;;;;;5094854;28;20208;-43
2022/07/02 04:52:02;;;;;;;3.30;2.10;;;15.60;98.30;;;;;;5094676;28;20181;-44
2022/07/02 04:54:27;;;;;;;3.40;2.33;;;15.60;98.20;;;;;;5094909;28;20200;-44
2022/07/02 04:56:53;;;;;;;1.90;1.70;;;15.70;98.10;;;;;;5096823;28;20427;-45
2022/07/02 04:59:19;;;;;;;1.97;1.70;;;15.80;97.90;;;;;;5099342;28;20178;-44
2022/07/02 05:01:44;;;;;;;2.10;1.90;;;15.90;97.70;;;;;;5098931;28;20424;-45
2022/07/02 05:04:10;;;;;;;2.60;1.90;;;16.00;97.60;;;;;;5098478;28;20184;-43
2022/07/02 05:06:36;;;;;;;3.20;2.90;;;16.00;97.60;;;;;;5097696;28;20181;-44
2022/07/02 05:09:03;;;;;;;2.03;1.83;;;16.10;97.60;;;;;;5097710;28;20406;-44
2022/07/02 05:11:29;;;;;;;2.30;2.00;;;16.20;97.40;;;;;;5096837;28;20645;-42
2022/07/02 05:13:55;;;;;;;2.87;1.70;;;16.20;97.40;;;;;;5098895;28;20418;-45
2022/07/02 05:16:21;;;;;;;2.80;1.93;;;16.30;97.40;;;;;;5097578;28;20439;-45
2022/07/02 05:18:47;;;;;;;2.17;1.97;;;16.40;97.20;;;;;;5098451;28;20404;-44
2022/07/02 05:21:13;;;;;;;2.80;2.60;;;16.40;97.20;;;;;;5097108;28;20196;-46
2022/07/02 05:23:39;;;;;;;2.70;2.30;;;16.50;97.20;;;;;;5098400;28;20410;-51
2022/07/02 05:26:05;;;;;;;2.93;2.10;;;16.60;97.20;;;;;;5099149;28;20177;-44
2022/07/02 05:28:31;;;;;;;2.87;2.57;;;16.60;97.20;;;;;;5099102;28;20939;-47
2022/07/02 05:30:57;;;;;;;3.60;2.10;;;16.70;97.20;;;;;;5098412;28;20977;-44
2022/07/02 05:33:23;;;;;;;3.43;2.40;;;16.80;97.30;;;;;;5099336;28;20451;-45
2022/07/02 05:35:48;;;;;;;2.67;2.10;;;16.90;97.60;;;;;;5099305;28;20208;-46
2022/07/02 05:38:14;;;;;;;2.33;2.13;;;16.80;97.90;;;;;;5098988;28;20566;-44
2022/07/02 05:40:40;;;;;;;2.60;2.07;;;16.80;98.30;;;;;;5097290;28;20284;-44
2022/07/02 05:43:06;;;;;;;2.57;2.37;;;16.80;98.70;;;;;;5097696;28;20173;-45
2022/07/02 05:45:31;;;;;;;2.60;2.33;;;16.80;99.00;;;;;;5097152;28;20505;-44
2022/07/02 05:47:57;;;;;;;2.63;2.43;;;16.80;99.30;;;;;;5097100;28;20173;-45
2022/07/02 05:50:23;;;;;;;2.40;2.20;;;16.80;99.60;;;;;;5097690;28;20224;-47
2022/07/02 05:52:49;;;;;;;2.77;2.17;;;16.90;99.70;;;;;;5098402;28;20173;-45
2022/07/02 05:55:14;;;;;;;2.53;2.03;;;17.00;99.50;;;;;;5098196;28;20720;-44
2022/07/02 05:57:40;;;;;;;4.00;1.80;;;17.10;99.00;;;;;;5100595;28;20250;-44
2022/07/02 06:00:08;;;;;;;1.80;1.70;;;17.30;99.00;;;;;;5098172;28;20211;-44
2022/07/02 06:02:34;;;;;;;2.00;1.80;;;17.40;98.70;;;;;;5096480;28;20439;-46
2022/07/02 06:07:38;;;;;;;2.53;1.60;;;17.50;98.50;;;;;;5098121;28;20434;-43
2022/07/02 06:07:49;;;;;;;2.10;1.77;;;17.60;97.90;;;;;;5096787;28;20465;-45
2022/07/02 06:10:18;;;;;;;2.33;1.67;;;17.60;98.00;;;;;;5097828;28;20822;-45
2022/07/02 06:12:48;;;;;;;1.60;1.50;;;17.70;97.50;;;;;;5098727;28;20169;-47
2022/07/02 06:15:18;;;;;;;1.97;1.67;;;17.90;97.30;;;;;;5098808;28;20419;-44
2022/07/02 06:17:44;;;;;;;1.40;1.30;;;17.90;97.20;;;;;;5098830;28;20509;-43
2022/07/02 06:20:11;;;;;;;1.70;1.43;;;18.00;96.90;;;;;;5098095;28;20439;-46
2022/07/02 06:22:37;;;;;;;1.73;1.40;;;18.10;96.90;;;;;;5079033;28;20419;-44
2022/07/02 06:25:03;;;;;;;2.47;1.60;;;18.20;97.00;;;;;;5096654;28;20528;-45
2022/07/02 06:27:33;;;;;;;1.60;1.50;;;18.30;96.70;;;;;;5096282;28;20180;-47
2022/07/02 06:29:59;;;;;;;2.17;1.43;;;18.40;96.70;;;;;;5094355;28;20596;-44
2022/07/02 06:32:24;;;;;;;1.90;1.53;;;18.60;96.40;;;;;;5095807;28;20464;-45
2022/07/02 06:34:50;;;;;;;2.40;1.37;;;18.70;96.10;;;;;;5094710;28;20438;-51
2022/07/02 06:37:16;;;;;;;1.70;1.23;;;18.90;96.00;;;;;;5095548;28;20165;-44
2022/07/02 06:39:41;;;;;;;1.77;1.50;;;19.00;95.30;;;;;;5095598;28;20195;-44
2022/07/02 06:42:19;;;;;;;1.60;1.47;;;19.10;95.20;;;;;;5095788;28;20281;-43
2022/07/02 06:45:04;;;;;;;2.53;1.50;;;19.20;94.40;;;;;;5094728;28;20189;-46
2022/07/02 06:47:31;;;;;;;1.60;1.40;;;19.30;94.40;;;;;;5086035;28;20933;-44
2022/07/02 06:49:58;;;;;;;2.53;1.50;;;19.30;94.30;;;;;;5095684;28;20513;-44
2022/07/02 06:52:24;;;;;;;4.10;2.00;;;19.50;94.20;;;;;;5095072;28;20814;-44
2022/07/02 06:54:50;;;;;;;1.80;1.57;;;19.40;93.30;;;;;;5095725;28;20446;-44
2022/07/02 06:57:16;;;;;;;1.60;1.23;;;19.30;92.50;;;;;;5095814;28;20431;-44
2022/07/02 06:59:42;;;;;;;1.67;1.30;;;19.20;92.40;;;;;;5096030;28;20957;-44
2022/07/02 07:02:08;;;;;;;2.30;1.50;;;19.10;92.60;;;;;;5097507;28;20208;-43
2022/07/02 07:04:35;;;;;;;4.60;1.40;;;19.20;93.40;;;;;;5095999;28;20193;-46
2022/07/02 07:07:04;;;;;;;2.93;1.13;;;19.30;93.30;;;;;;5096701;28;20443;-45
2022/07/02 07:09:31;;;;;;;2.13;1.50;;;19.50;93.50;;;;;;5095838;28;20561;-46
2022/07/02 07:11:57;;;;;;;2.40;1.50;;;19.60;92.50;;;;;;5096383;28;20447;-47
2022/07/02 07:14:22;;;;;;;1.70;1.40;;;19.70;92.80;;;;;;5076158;28;20459;-45
2022/07/02 07:16:48;;;;;;;2.07;1.20;;;19.90;92.80;;;;;;5077669;28;20400;-46
2022/07/02 07:19:14;;;;;;;1.93;1.47;;;20.00;93.00;;;;;;5087229;28;20748;-44
2022/07/02 07:21:41;;;;;;;1.83;1.27;;;20.30;92.30;;;;;;5095377;28;20458;-46
2022/07/02 07:24:08;;;;;;;1.40;1.20;;;20.50;91.90;;;;;;5096760;28;20177;-46
2022/07/02 07:26:34;;;;;;;2.47;1.93;;;20.70;92.60;;;;;;5097817;28;20438;-45
2022/07/02 07:29:02;;;;;;;1.67;1.30;;;21.00;90.60;;;;;;5096681;28;20429;-46
2022/07/02 07:31:28;;;;;;;1.60;1.37;;;21.20;91.00;;;;;;5097374;28;20485;-47
2022/07/02 07:33:56;;;;;;;2.30;1.30;;;21.30;88.50;;;;;;5096773;28;20416;-43
2022/07/02 07:36:22;;;;;;;1.40;1.17;;;21.30;88.80;;;;;;5096410;28;20454;-44
2022/07/02 07:38:49;;;;;;;2.17;1.37;;;21.30;89.70;;;;;;5096678;28;20411;-44
2022/07/02 07:41:15;;;;;;;1.50;1.40;;;21.50;86.10;;;;;;5095165;28;20471;-46
2022/07/02 07:43:41;;;;;;;2.20;1.90;;;21.50;86.80;;;;;;5096443;28;20812;-47
2022/07/02 07:46:06;;;;;;;3.20;1.40;;;21.60;85.70;;;;;;5095928;28;20446;-46
2022/07/02 07:48:33;;;;;;;2.67;1.30;;;21.80;86.30;;;;;;5095129;28;20414;-45
2022/07/02 07:50:59;;;;;;;2.90;1.33;;;22.00;84.60;;;;;;5093835;28;20307;-55
2022/07/02 07:53:25;;;;;;;1.40;1.17;;;22.20;86.40;;;;;;5093708;28;20487;-44
2022/07/02 07:55:51;;;;;;;1.47;1.30;;;22.40;84.20;;;;;;5093079;28;20684;-44
2022/07/02 07:58:17;;;;;;;1.50;1.40;;;22.60;82.60;;;;;;5094173;28;20419;-44
2022/07/02 08:00:43;;;;;;;2.50;1.30;;;22.70;84.10;;;;;;5092337;28;20641;-46
2022/07/02 08:03:10;;;;;;;1.37;1.07;;;22.80;80.60;;;;;;5092943;28;20681;-46
2022/07/02 08:05:36;;;;;;;1.50;1.20;;;22.90;82.60;;;;;;5089451;28;20442;-45
2022/07/02 08:08:02;;;;;;;3.30;1.30;;;22.90;81.60;;;;;;5092846;28;20414;-48
2022/07/02 08:10:28;;;;;;;1.30;1.00;;;23.10;80.60;;;;;;5090574;28;20484;-45
2022/07/02 08:12:53;;;;;;;1.47;1.30;;;23.40;76.70;;;;;;5091951;28;20927;-47
2022/07/02 08:15:19;;;;;;;2.10;1.40;;;23.40;77.60;;;;;;5092115;28;20848;-45
2022/07/02 08:17:45;;;;;;;3.73;1.40;;;23.50;73.90;;;;;;5093962;28;20174;-46
2022/07/02 08:20:11;;;;;;;1.90;1.27;;;23.30;74.70;;;;;;5093794;28;20289;-47
2022/07/02 08:22:37;;;;;;;1.70;1.43;;;23.10;74.90;;;;;;5095713;28;20560;-45
2022/07/02 08:25:04;;;;;;;1.50;1.23;;;23.00;76.00;;;;;;5092525;28;20451;-44
2022/07/02 08:27:29;;;;;;;1.80;1.40;;;23.10;79.20;;;;;;5094474;28;20450;-44
2022/07/02 08:29:55;;;;;;;1.23;1.00;;;23.30;77.50;;;;;;5095018;28;20505;-44
2022/07/02 08:32:22;;;;;;;2.13;1.40;;;23.50;74.80;;;;;;5094805;28;20719;-47
2022/07/02 08:34:48;;;;;;;2.47;1.10;;;23.50;74.30;;;;;;5094790;28;20664;-44
2022/07/02 08:37:15;;;;;;;1.77;1.20;;;23.50;73.70;;;;;;5093072;28;20825;-45
2022/07/02 08:39:41;;;;;;;1.90;1.30;;;23.70;74.70;;;;;;5094356;28;20193;-44
2022/07/02 08:42:09;;;;;;;3.60;1.30;;;23.80;71.70;;;;;;5094752;28;20439;-45
2022/07/02 08:44:36;;;;;;;1.43;0.90;;;23.80;72.00;;;;;;5093723;28;20479;-44
2022/07/02 08:47:05;;;;;;;4.07;1.10;;;23.60;69.00;;;;;;5114369;28;20418;-45
2022/07/02 08:49:32;;;;;;;2.63;1.30;;;23.30;70.90;;;;;;5103448;28;20434;-46
2022/07/02 08:52:04;;;;;;;2.53;1.57;;;23.20;70.20;;;;;;5092735;28;20440;-44
2022/07/02 08:54:31;;;;;;;1.77;1.23;;;23.40;71.60;;;;;;5091886;28;20437;-46
2022/07/02 08:57:00;;;;;;;2.60;1.37;;;23.60;71.80;;;;;;5092913;28;20921;-45
2022/07/02 08:59:26;;;;;;;1.73;1.13;;;24.00;72.50;;;;;;5092223;28;20445;-44
2022/07/02 09:01:52;;;;;;;1.30;0.90;;;24.30;68.60;;;;;;5091730;28;20433;-47
2022/07/02 09:04:21;;;;;;;1.63;1.07;;;24.40;63.40;;;;;;5091227;28;20530;-43
2022/07/02 09:06:47;;;;;;;1.63;1.07;;;24.20;65.10;;;;;;5091533;28;20295;-45
2022/07/02 09:09:13;;;;;;;1.70;1.00;;;24.20;64.00;;;;;;5091223;28;20418;-45
2022/07/02 09:11:39;;;;;;;1.53;1.10;;;24.10;63.50;;;;;;5090492;28;20477;-45
2022/07/02 09:14:05;;;;;;;3.30;1.00;;;24.30;65.30;;;;;;5092520;28;20211;-45
2022/07/02 09:16:31;;;;;;;3.10;1.20;;;24.40;63.10;;;;;;5092254;28;20429;-44
2022/07/02 09:18:57;;;;;;;1.67;0.97;;;24.50;60.80;;;;;;5091865;28;20420;-48
2022/07/02 09:21:23;;;;;;;3.20;1.30;;;24.40;61.40;;;;;;5093745;28;20432;-47
2022/07/02 09:23:50;;;;;;;2.90;1.23;;;24.40;62.50;;;;;;5093479;28;20965;-44
2022/07/02 09:26:25;;;;;;;2.90;1.37;;;24.40;61.50;;;;;;5091847;28;20185;-46
2022/07/02 09:29:01;;;;;;;1.87;1.00;;;24.70;63.50;;;;;;5094394;28;20479;-48
2022/07/02 09:31:47;;;;;;;1.37;1.03;;;24.80;60.20;;;;;;5095421;28;20599;-44
2022/07/02 09:34:28;;;;;;;1.23;1.00;;;24.60;62.20;;;;;;5095023;28;20408;-45
2022/07/02 09:36:54;;;;;;;1.50;1.20;;;24.90;64.70;;;;;;5094605;28;20522;-44
2022/07/02 09:39:30;;;;;;;3.00;1.70;;;25.10;61.50;;;;;;5095152;28;20422;-44
2022/07/02 09:41:57;;;;;;;1.70;1.03;;;25.30;60.10;;;;;;5093610;28;20409;-44
2022/07/02 09:44:25;;;;;;;2.40;0.90;;;25.00;62.00;;;;;;5097824;28;20744;-47
2022/07/02 09:46:51;;;;;;;2.10;0.90;;;25.30;62.30;;;;;;5096626;28;20427;-46
2022/07/02 09:49:17;;;;;;;1.40;0.80;;;25.40;58.10;;;;;;5097500;28;20434;-45
2022/07/02 09:51:53;;;;;;;1.90;1.33;;;25.20;58.00;;;;;;5096983;28;20486;-44
2022/07/02 09:54:23;;;;;;;1.70;0.90;;;25.50;60.20;;;;;;5097437;28;20388;-45
2022/07/02 09:56:58;;;;;;;4.33;0.97;;;25.80;55.60;;;;;;5095995;28;20423;-44
2022/07/02 09:59:24;;;;;;;1.60;1.00;;;26.10;57.40;;;;;;5093581;28;20620;-45
2022/07/02 10:01:50;;;;;;;2.03;1.03;;;26.50;54.30;;;;;;5091593;28;20529;-45
2022/07/02 10:04:29;;;;;;;1.97;1.10;;;26.70;53.40;;;;;;5093990;28;20426;-45
2022/07/02 10:06:55;;;;;;;1.50;1.10;;;26.50;51.90;;;;;;5095024;28;20443;-46
2022/07/02 10:09:22;;;;;;;2.07;1.27;;;26.30;54.80;;;;;;5091861;28;20424;-46
2022/07/02 10:11:48;;;;;;;3.13;1.00;;;26.60;55.70;;;;;;5093767;28;20182;-46
2022/07/02 10:14:18;;;;;;;1.83;1.10;;;26.90;51.40;;;;;;5093465;28;20895;-45
2022/07/02 10:16:45;;;;;;;1.70;1.03;;;26.80;51.00;;;;;;5095890;28;20799;-45
2022/07/02 10:19:11;;;;;;;1.57;0.87;;;26.60;51.60;;;;;;5078966;28;20480;-47
2022/07/02 10:21:39;;;;;;;1.60;1.10;;;26.50;52.50;;;;;;5096240;28;20513;-44
2022/07/02 10:24:06;;;;;;;2.17;1.50;;;26.30;51.40;;;;;;5096735;28;20409;-44
2022/07/02 10:26:32;;;;;;;1.80;1.70;;;26.00;51.00;;;;;;5095849;28;20691;-44
2022/07/02 10:29:01;;;;;;;7.67;1.80;;;26.10;51.60;;;;;;5096760;28;20401;-42
2022/07/02 10:31:42;;;;;;;1.90;1.20;;;26.30;51.60;;;;;;5096625;28;20489;-45
2022/07/02 10:34:42;;;;;;;1.60;0.90;;;26.30;52.50;;;;;;5092282;28;20434;-56
2022/07/02 10:37:09;;;;;;;1.07;0.73;;;26.40;49.30;;;;;;5092907;28;20419;-45
2022/07/02 10:39:41;;;;;;;1.43;0.90;;;26.50;49.60;;;;;;5097674;28;20808;-45
2022/07/02 10:42:07;;;;;;;1.67;1.03;;;26.60;51.80;;;;;;5096604;28;20523;-45
2022/07/02 10:44:38;;;;;;;1.67;0.87;;;27.20;51.20;;;;;;5095774;28;20509;-46
2022/07/02 10:47:05;;;;;;;1.70;1.00;;;27.50;47.90;;;;;;5097302;28;20692;-46
2022/07/02 10:49:32;;;;;;;1.60;1.10;;;27.40;48.70;;;;;;5088036;28;20848;-49
2022/07/02 10:51:58;;;;;;;1.00;0.73;;;27.30;50.50;;;;;;5076789;28;20409;-46
2022/07/02 10:54:33;;;;;;;1.17;0.83;;;27.50;47.70;;;;;;5075347;28;20426;-46
2022/07/02 10:56:59;;;;;;;1.30;0.90;;;27.30;46.60;;;;;;5073805;28;20264;-45
2022/07/02 10:59:27;;;;;;;1.50;1.03;;;27.20;46.90;;;;;;5074770;28;20556;-44
2022/07/02 11:02:15;;;;;;;1.57;1.00;;;27.50;48.20;;;;;;5071833;28;20692;-45
2022/07/02 11:04:41;;;;;;;3.33;1.20;;;27.50;47.00;;;;;;5072609;28;20473;-45
2022/07/02 11:07:11;;;;;;;1.87;1.10;;;27.40;47.10;;;;;;5074217;28;20764;-45
2022/07/02 11:09:57;;;;;;;1.97;0.80;;;27.70;47.30;;;;;;5074900;28;21509;-45
2022/07/02 11:12:48;;;;;;;4.07;1.13;;;28.50;47.60;;;;;;5075791;28;20464;-43
2022/07/02 11:15:18;;;;;;;1.90;1.20;;;29.20;45.00;;;;;;5062534;28;20441;-45
2022/07/02 11:17:48;;;;;;;1.30;0.70;;;29.10;44.50;;;;;;5091746;28;20421;-46
2022/07/02 11:20:14;;;;;;;1.50;1.00;;;28.80;45.50;;;;;;5095532;28;20434;-45
2022/07/02 11:22:39;;;;;;;2.00;1.10;;;28.90;45.00;;;;;;5096580;28;20419;-45
2022/07/02 11:25:06;;;;;;;1.10;0.90;;;29.10;44.60;;;;;;5094267;28;20696;-46
2022/07/02 11:27:31;;;;;;;1.57;0.80;;;29.40;42.80;;;;;;5095045;28;20179;-46
2022/07/02 11:29:57;;;;;;;1.20;0.90;;;29.10;43.90;;;;;;5095809;28;20469;-45
2022/07/02 11:32:23;;;;;;;1.20;1.00;;;28.80;44.00;;;;;;5091700;28;20220;-46
2022/07/02 11:34:58;;;;;;;2.20;0.97;;;28.60;45.40;;;;;;5094230;28;20286;-45
2022/07/02 11:37:24;;;;;;;1.40;1.00;;;29.00;43.80;;;;;;5091810;28;20736;-45
2022/07/02 11:39:50;;;;;;;1.33;1.00;;;29.30;42.70;;;;;;5093800;28;20428;-44
2022/07/02 11:42:16;;;;;;;2.87;1.10;;;29.30;42.30;;;;;;5093351;28;20436;-46
2022/07/02 11:44:42;;;;;;;2.73;1.23;;;29.10;42.80;;;;;;5091002;28;20177;-46
2022/07/02 11:47:08;;;;;;;1.40;0.90;;;28.80;42.40;;;;;;5091501;28;20522;-45
2022/07/02 11:49:36;;;;;;;1.20;1.00;;;28.60;41.90;;;;;;5092225;28;20402;-49
2022/07/02 11:52:05;;;;;;;1.10;0.80;;;28.70;42.50;;;;;;5094748;28;20404;-47
2022/07/02 11:54:31;;;;;;;1.20;0.90;;;29.00;42.50;;;;;;5094376;28;20453;-47
2022/07/02 11:56:56;;;;;;;1.30;1.00;;;29.60;41.70;;;;;;5093725;28;20840;-46
2022/07/02 11:59:24;;;;;;;1.57;1.03;;;30.20;43.10;;;;;;5091777;28;20310;-46
2022/07/02 12:01:51;;;;;;;1.50;1.00;;;30.50;41.00;;;;;;5091835;28;20179;-45
2022/07/02 12:04:19;;;;;;;1.40;0.97;;;30.40;40.90;;;;;;5092246;28;20815;-45
2022/07/02 12:06:47;;;;;;;1.40;0.87;;;30.50;40.00;;;;;;5094440;28;20393;-47
2022/07/02 12:09:15;;;;;;;2.30;0.93;;;30.30;38.70;;;;;;5094105;28;20402;-47
2022/07/02 12:11:44;;;;;;;9.40;2.03;;;30.00;39.70;;;;;;5091571;28;20469;-47
2022/07/02 12:14:10;;;;;;;1.90;1.00;;;30.00;41.50;;;;;;5093308;28;20374;-46
2022/07/02 12:16:38;;;;;;;2.20;0.90;;;30.40;42.30;;;;;;5094586;28;20430;-46
2022/07/02 12:19:09;;;;;;;1.23;0.80;;;30.50;37.80;;;;;;5096007;28;20378;-47
2022/07/02 12:21:39;;;;;;;1.83;1.10;;;30.40;40.10;;;;;;5093537;28;20452;-48
2022/07/02 12:24:31;;;;;;;1.10;0.80;;;30.90;40.60;;;;;;5090625;28;20378;-45
2022/07/02 12:27:08;;;;;;;1.13;0.67;;;30.70;38.70;;;;;;5092828;28;20485;-47
2022/07/02 12:29:56;;;;;;;1.20;0.80;;;30.90;41.60;;;;;;5090690;28;20824;-47
2022/07/02 12:32:27;;;;;;;1.30;1.10;;;31.60;38.90;;;;;;5092157;28;20794;-47
2022/07/02 12:35:06;;;;;;;1.50;1.00;;;31.20;38.10;;;;;;5092126;28;20413;-45
2022/07/02 12:37:34;;;;;;;2.47;1.00;;;30.60;39.00;;;;;;5087216;28;20425;-45
2022/07/02 12:40:04;;;;;;;2.00;1.10;;;30.70;40.30;;;;;;5091512;28;20458;-46
2022/07/02 12:42:35;;;;;;;1.73;1.07;;;31.30;40.90;;;;;;5090422;28;20476;-45
2022/07/02 12:45:03;;;;;;;1.53;0.90;;;32.10;40.00;;;;;;5089923;28;20497;-46
2022/07/02 12:47:29;;;;;;;1.30;1.10;;;32.80;39.50;;;;;;5091485;28;20809;-48
2022/07/02 12:50:20;;;;;;;1.63;1.10;;;32.90;36.60;;;;;;5091767;28;20467;-46